sensor_id;sensor_type;location;lat;lon;timestamp;P1;durP1;ratioP1;P2;durP2;ratioP2
82005;SDS011;71529;47.484;19.064;2023-08-06T00:02:15;9.23;;;7.45;;
82005;SDS011;71529;47.484;19.064;2023-08-06T00:04:43;9.13;;;7.63;;
82005;SDS011;71529;47.484;19.064;2023-08-06T00:07:11;9.48;;;7.72;;
82005;SDS011;71529;47.484;19.064;2023-08-06T00:09:41;10.02;;;7.85;;
82005;SDS011;71529;47.484;19.064;2023-08-06T00:12:09;12.13;;;7.43;;
82005;SDS011;71529;47.484;19.064;2023-08-06T00:14:37;10.02;;;8.23;;
82005;SDS011;71529;47.484;19.064;2023-08-06T00:17:05;8.95;;;7.03;;
82005;SDS011;71529;47.484;19.064;2023-08-06T00:19:33;7.53;;;6.35;;
82005;SDS011;71529;47.484;19.064;2023-08-06T00:22:01;11.40;;;7.57;;
82005;SDS011;71529;47.484;19.064;2023-08-06T00:24:29;9.00;;;6.40;;
82005;SDS011;71529;47.484;19.064;2023-08-06T00:26:58;7.00;;;6.30;;
82005;SDS011;71529;47.484;19.064;2023-08-06T00:29:26;10.32;;;6.65;;
82005;SDS011;71529;47.484;19.064;2023-08-06T00:31:55;8.88;;;6.75;;
82005;SDS011;71529;47.484;19.064;2023-08-06T00:34:23;9.02;;;6.28;;
82005;SDS011;71529;47.484;19.064;2023-08-06T00:36:51;10.68;;;6.32;;
82005;SDS011;71529;47.484;19.064;2023-08-06T00:39:20;11.35;;;6.60;;
82005;SDS011;71529;47.484;19.064;2023-08-06T00:41:48;10.07;;;6.63;;
82005;SDS011;71529;47.484;19.064;2023-08-06T00:44:18;7.38;;;6.18;;
82005;SDS011;71529;47.484;19.064;2023-08-06T00:46:46;8.32;;;6.28;;
82005;SDS011;71529;47.484;19.064;2023-08-06T00:49:14;8.52;;;6.20;;
82005;SDS011;71529;47.484;19.064;2023-08-06T00:51:42;9.98;;;6.65;;
82005;SDS011;71529;47.484;19.064;2023-08-06T00:54:11;7.75;;;6.65;;
82005;SDS011;71529;47.484;19.064;2023-08-06T00:56:39;7.68;;;6.47;;
82005;SDS011;71529;47.484;19.064;2023-08-06T00:59:09;10.00;;;6.50;;
82005;SDS011;71529;47.484;19.064;2023-08-06T01:01:40;7.68;;;6.38;;
82005;SDS011;71529;47.484;19.064;2023-08-06T01:04:09;8.63;;;6.22;;
82005;SDS011;71529;47.484;19.064;2023-08-06T01:06:39;9.30;;;7.15;;
82005;SDS011;71529;47.484;19.064;2023-08-06T01:09:21;8.77;;;6.95;;
82005;SDS011;71529;47.484;19.064;2023-08-06T01:11:59;9.45;;;7.03;;
82005;SDS011;71529;47.484;19.064;2023-08-06T01:14:36;11.15;;;7.18;;
82005;SDS011;71529;47.484;19.064;2023-08-06T01:17:13;12.70;;;7.25;;
82005;SDS011;71529;47.484;19.064;2023-08-06T01:19:42;6.95;;;6.20;;
82005;SDS011;71529;47.484;19.064;2023-08-06T01:22:11;10.30;;;7.00;;
82005;SDS011;71529;47.484;19.064;2023-08-06T01:24:39;9.05;;;6.88;;
82005;SDS011;71529;47.484;19.064;2023-08-06T01:27:14;9.85;;;7.32;;
82005;SDS011;71529;47.484;19.064;2023-08-06T01:29:53;9.10;;;6.72;;
82005;SDS011;71529;47.484;19.064;2023-08-06T01:32:28;12.23;;;7.05;;
82005;SDS011;71529;47.484;19.064;2023-08-06T01:34:59;14.50;;;7.00;;
82005;SDS011;71529;47.484;19.064;2023-08-06T01:37:30;8.18;;;6.90;;
82005;SDS011;71529;47.484;19.064;2023-08-06T01:39:58;8.85;;;6.55;;
82005;SDS011;71529;47.484;19.064;2023-08-06T01:42:26;8.80;;;6.78;;
82005;SDS011;71529;47.484;19.064;2023-08-06T01:44:54;9.32;;;6.75;;
82005;SDS011;71529;47.484;19.064;2023-08-06T01:47:23;9.55;;;6.70;;
82005;SDS011;71529;47.484;19.064;2023-08-06T01:49:51;9.00;;;6.45;;
82005;SDS011;71529;47.484;19.064;2023-08-06T01:52:19;8.40;;;6.90;;
82005;SDS011;71529;47.484;19.064;2023-08-06T01:54:48;9.48;;;6.60;;
82005;SDS011;71529;47.484;19.064;2023-08-06T01:57:16;8.25;;;5.90;;
82005;SDS011;71529;47.484;19.064;2023-08-06T01:59:44;9.02;;;6.50;;
82005;SDS011;71529;47.484;19.064;2023-08-06T02:02:12;7.40;;;5.97;;
82005;SDS011;71529;47.484;19.064;2023-08-06T02:04:40;8.43;;;6.63;;
82005;SDS011;71529;47.484;19.064;2023-08-06T02:07:09;7.18;;;5.93;;
82005;SDS011;71529;47.484;19.064;2023-08-06T02:09:37;7.00;;;5.38;;
82005;SDS011;71529;47.484;19.064;2023-08-06T02:12:06;8.43;;;6.40;;
82005;SDS011;71529;47.484;19.064;2023-08-06T02:14:35;8.95;;;5.40;;
82005;SDS011;71529;47.484;19.064;2023-08-06T02:17:03;9.15;;;5.90;;
82005;SDS011;71529;47.484;19.064;2023-08-06T02:19:31;7.35;;;5.50;;
82005;SDS011;71529;47.484;19.064;2023-08-06T02:21:59;7.40;;;5.75;;
82005;SDS011;71529;47.484;19.064;2023-08-06T02:24:28;7.60;;;5.00;;
82005;SDS011;71529;47.484;19.064;2023-08-06T02:26:56;7.70;;;5.45;;
82005;SDS011;71529;47.484;19.064;2023-08-06T02:29:26;5.72;;;5.00;;
82005;SDS011;71529;47.484;19.064;2023-08-06T02:31:54;8.20;;;5.07;;
82005;SDS011;71529;47.484;19.064;2023-08-06T02:34:22;8.02;;;5.07;;
82005;SDS011;71529;47.484;19.064;2023-08-06T02:36:50;6.28;;;5.07;;
82005;SDS011;71529;47.484;19.064;2023-08-06T02:39:18;7.15;;;4.68;;
82005;SDS011;71529;47.484;19.064;2023-08-06T02:41:46;10.02;;;4.70;;
82005;SDS011;71529;47.484;19.064;2023-08-06T02:44:15;5.50;;;4.75;;
82005;SDS011;71529;47.484;19.064;2023-08-06T02:46:45;6.40;;;4.93;;
82005;SDS011;71529;47.484;19.064;2023-08-06T02:49:13;5.25;;;4.47;;
82005;SDS011;71529;47.484;19.064;2023-08-06T02:51:41;6.10;;;5.25;;
82005;SDS011;71529;47.484;19.064;2023-08-06T02:54:09;13.25;;;5.57;;
82005;SDS011;71529;47.484;19.064;2023-08-06T02:56:37;7.70;;;5.30;;
82005;SDS011;71529;47.484;19.064;2023-08-06T02:59:05;5.18;;;4.55;;
82005;SDS011;71529;47.484;19.064;2023-08-06T03:01:33;9.00;;;5.15;;
82005;SDS011;71529;47.484;19.064;2023-08-06T03:04:04;7.07;;;4.70;;
82005;SDS011;71529;47.484;19.064;2023-08-06T03:06:32;7.03;;;4.47;;
82005;SDS011;71529;47.484;19.064;2023-08-06T03:09:00;6.82;;;4.72;;
82005;SDS011;71529;47.484;19.064;2023-08-06T03:11:28;9.77;;;5.32;;
82005;SDS011;71529;47.484;19.064;2023-08-06T03:13:56;7.70;;;4.70;;
82005;SDS011;71529;47.484;19.064;2023-08-06T03:16:24;7.32;;;5.07;;
82005;SDS011;71529;47.484;19.064;2023-08-06T03:18:52;5.30;;;4.43;;
82005;SDS011;71529;47.484;19.064;2023-08-06T03:21:22;10.63;;;4.53;;
82005;SDS011;71529;47.484;19.064;2023-08-06T03:23:50;5.97;;;4.55;;
82005;SDS011;71529;47.484;19.064;2023-08-06T03:26:18;6.60;;;4.45;;
82005;SDS011;71529;47.484;19.064;2023-08-06T03:28:46;6.82;;;4.22;;
82005;SDS011;71529;47.484;19.064;2023-08-06T03:31:14;5.97;;;4.20;;
82005;SDS011;71529;47.484;19.064;2023-08-06T03:33:42;4.47;;;3.97;;
82005;SDS011;71529;47.484;19.064;2023-08-06T03:36:10;4.53;;;4.00;;
82005;SDS011;71529;47.484;19.064;2023-08-06T03:38:40;4.10;;;3.70;;
82005;SDS011;71529;47.484;19.064;2023-08-06T03:41:08;4.45;;;3.97;;
82005;SDS011;71529;47.484;19.064;2023-08-06T03:43:36;6.72;;;3.85;;
82005;SDS011;71529;47.484;19.064;2023-08-06T03:46:04;10.65;;;6.55;;
82005;SDS011;71529;47.484;19.064;2023-08-06T03:48:32;8.30;;;5.20;;
82005;SDS011;71529;47.484;19.064;2023-08-06T03:51:00;7.25;;;4.75;;
82005;SDS011;71529;47.484;19.064;2023-08-06T03:53:28;6.15;;;4.30;;
82005;SDS011;71529;47.484;19.064;2023-08-06T03:55:58;6.85;;;3.70;;
82005;SDS011;71529;47.484;19.064;2023-08-06T03:58:27;4.95;;;4.05;;
82005;SDS011;71529;47.484;19.064;2023-08-06T04:00:59;5.85;;;4.10;;
82005;SDS011;71529;47.484;19.064;2023-08-06T04:03:27;4.43;;;3.92;;
82005;SDS011;71529;47.484;19.064;2023-08-06T04:05:56;4.75;;;3.97;;
82005;SDS011;71529;47.484;19.064;2023-08-06T04:08:24;4.15;;;3.70;;
82005;SDS011;71529;47.484;19.064;2023-08-06T04:10:52;5.63;;;3.72;;
82005;SDS011;71529;47.484;19.064;2023-08-06T04:13:22;7.18;;;4.13;;
82005;SDS011;71529;47.484;19.064;2023-08-06T04:15:50;5.10;;;4.00;;
82005;SDS011;71529;47.484;19.064;2023-08-06T04:18:18;4.50;;;3.83;;
82005;SDS011;71529;47.484;19.064;2023-08-06T04:20:46;6.88;;;3.88;;
82005;SDS011;71529;47.484;19.064;2023-08-06T04:23:16;5.55;;;3.97;;
82005;SDS011;71529;47.484;19.064;2023-08-06T04:25:44;4.55;;;3.90;;
82005;SDS011;71529;47.484;19.064;2023-08-06T04:28:12;6.78;;;4.75;;
82005;SDS011;71529;47.484;19.064;2023-08-06T04:30:41;5.60;;;4.82;;
82005;SDS011;71529;47.484;19.064;2023-08-06T04:33:09;6.13;;;4.60;;
82005;SDS011;71529;47.484;19.064;2023-08-06T04:35:37;6.82;;;4.20;;
82005;SDS011;71529;47.484;19.064;2023-08-06T04:38:05;5.50;;;4.07;;
82005;SDS011;71529;47.484;19.064;2023-08-06T04:40:33;4.47;;;4.00;;
82005;SDS011;71529;47.484;19.064;2023-08-06T04:43:01;8.15;;;4.32;;
82005;SDS011;71529;47.484;19.064;2023-08-06T04:45:30;13.05;;;5.30;;
82005;SDS011;71529;47.484;19.064;2023-08-06T04:47:59;15.63;;;4.57;;
82005;SDS011;71529;47.484;19.064;2023-08-06T04:50:27;5.03;;;3.40;;
82005;SDS011;71529;47.484;19.064;2023-08-06T04:52:55;4.90;;;3.05;;
82005;SDS011;71529;47.484;19.064;2023-08-06T04:55:23;3.05;;;2.55;;
82005;SDS011;71529;47.484;19.064;2023-08-06T04:57:51;2.63;;;2.10;;
82005;SDS011;71529;47.484;19.064;2023-08-06T05:00:19;1.75;;;1.65;;
82005;SDS011;71529;47.484;19.064;2023-08-06T05:02:47;3.25;;;1.60;;
82005;SDS011;71529;47.484;19.064;2023-08-06T05:05:17;1.42;;;1.33;;
82005;SDS011;71529;47.484;19.064;2023-08-06T05:07:47;1.48;;;1.30;;
82005;SDS011;71529;47.484;19.064;2023-08-06T05:10:16;3.20;;;1.40;;
82005;SDS011;71529;47.484;19.064;2023-08-06T05:12:44;2.70;;;1.23;;
82005;SDS011;71529;47.484;19.064;2023-08-06T05:15:12;2.65;;;1.90;;
82005;SDS011;71529;47.484;19.064;2023-08-06T05:17:40;6.13;;;4.05;;
82005;SDS011;71529;47.484;19.064;2023-08-06T05:20:09;2.85;;;2.22;;
82005;SDS011;71529;47.484;19.064;2023-08-06T05:22:40;3.05;;;1.80;;
82005;SDS011;71529;47.484;19.064;2023-08-06T05:25:08;1.02;;;0.93;;
82005;SDS011;71529;47.484;19.064;2023-08-06T05:27:36;0.82;;;0.82;;
82005;SDS011;71529;47.484;19.064;2023-08-06T05:30:04;1.58;;;1.10;;
82005;SDS011;71529;47.484;19.064;2023-08-06T05:32:33;3.00;;;0.90;;
82005;SDS011;71529;47.484;19.064;2023-08-06T05:35:02;1.83;;;1.40;;
82005;SDS011;71529;47.484;19.064;2023-08-06T05:37:30;1.67;;;1.20;;
82005;SDS011;71529;47.484;19.064;2023-08-06T05:39:59;1.27;;;1.17;;
82005;SDS011;71529;47.484;19.064;2023-08-06T05:42:28;0.75;;;0.75;;
82005;SDS011;71529;47.484;19.064;2023-08-06T05:44:56;0.50;;;0.50;;
82005;SDS011;71529;47.484;19.064;2023-08-06T05:47:24;0.50;;;0.50;;
82005;SDS011;71529;47.484;19.064;2023-08-06T05:49:52;0.50;;;0.50;;
82005;SDS011;71529;47.484;19.064;2023-08-06T05:52:20;0.20;;;0.20;;
82005;SDS011;71529;47.484;19.064;2023-08-06T05:54:48;0.40;;;0.40;;
82005;SDS011;71529;47.484;19.064;2023-08-06T05:57:18;0.30;;;0.30;;
82005;SDS011;71529;47.484;19.064;2023-08-06T05:59:46;0.45;;;0.45;;
82005;SDS011;71529;47.484;19.064;2023-08-06T06:02:14;0.30;;;0.30;;
82005;SDS011;71529;47.484;19.064;2023-08-06T06:04:42;0.45;;;0.30;;
82005;SDS011;71529;47.484;19.064;2023-08-06T06:07:10;0.40;;;0.40;;
82005;SDS011;71529;47.484;19.064;2023-08-06T06:09:38;0.45;;;0.45;;
82005;SDS011;71529;47.484;19.064;2023-08-06T06:12:06;1.85;;;0.75;;
82005;SDS011;71529;47.484;19.064;2023-08-06T06:14:36;0.45;;;0.45;;
82005;SDS011;71529;47.484;19.064;2023-08-06T06:17:04;0.22;;;0.22;;
82005;SDS011;71529;47.484;19.064;2023-08-06T06:19:32;1.85;;;0.60;;
82005;SDS011;71529;47.484;19.064;2023-08-06T06:22:00;0.93;;;0.40;;
82005;SDS011;71529;47.484;19.064;2023-08-06T06:24:29;0.57;;;0.47;;
82005;SDS011;71529;47.484;19.064;2023-08-06T06:26:57;0.60;;;0.60;;
82005;SDS011;71529;47.484;19.064;2023-08-06T06:29:25;1.27;;;1.17;;
82005;SDS011;71529;47.484;19.064;2023-08-06T06:31:54;1.05;;;0.95;;
82005;SDS011;71529;47.484;19.064;2023-08-06T06:34:22;0.60;;;0.60;;
82005;SDS011;71529;47.484;19.064;2023-08-06T06:36:50;2.63;;;0.80;;
82005;SDS011;71529;47.484;19.064;2023-08-06T06:39:18;2.78;;;1.55;;
82005;SDS011;71529;47.484;19.064;2023-08-06T06:41:46;1.30;;;1.23;;
82005;SDS011;71529;47.484;19.064;2023-08-06T06:44:14;1.13;;;0.98;;
82005;SDS011;71529;47.484;19.064;2023-08-06T06:46:43;0.95;;;0.93;;
82005;SDS011;71529;47.484;19.064;2023-08-06T06:49:12;0.40;;;0.40;;
82005;SDS011;71529;47.484;19.064;2023-08-06T06:51:40;0.70;;;0.70;;
82005;SDS011;71529;47.484;19.064;2023-08-06T06:54:08;0.80;;;0.80;;
82005;SDS011;71529;47.484;19.064;2023-08-06T06:56:36;0.60;;;0.50;;
82005;SDS011;71529;47.484;19.064;2023-08-06T06:59:04;0.80;;;0.60;;
82005;SDS011;71529;47.484;19.064;2023-08-06T07:01:32;0.65;;;0.65;;
82005;SDS011;71529;47.484;19.064;2023-08-06T07:04:01;1.67;;;0.70;;
82005;SDS011;71529;47.484;19.064;2023-08-06T07:06:32;0.50;;;0.50;;
82005;SDS011;71529;47.484;19.064;2023-08-06T07:09:00;0.90;;;0.90;;
82005;SDS011;71529;47.484;19.064;2023-08-06T07:11:28;0.73;;;0.73;;
82005;SDS011;71529;47.484;19.064;2023-08-06T07:13:57;0.98;;;0.95;;
82005;SDS011;71529;47.484;19.064;2023-08-06T07:16:26;0.60;;;0.60;;
82005;SDS011;71529;47.484;19.064;2023-08-06T07:18:54;0.75;;;0.70;;
82005;SDS011;71529;47.484;19.064;2023-08-06T07:21:22;0.60;;;0.60;;
82005;SDS011;71529;47.484;19.064;2023-08-06T07:23:51;1.05;;;0.85;;
82005;SDS011;71529;47.484;19.064;2023-08-06T07:26:19;2.10;;;1.90;;
82005;SDS011;71529;47.484;19.064;2023-08-06T07:28:48;4.50;;;1.85;;
82005;SDS011;71529;47.484;19.064;2023-08-06T07:31:16;1.35;;;0.93;;
82005;SDS011;71529;47.484;19.064;2023-08-06T07:33:44;3.88;;;1.10;;
82005;SDS011;71529;47.484;19.064;2023-08-06T07:36:13;0.55;;;0.55;;
82005;SDS011;71529;47.484;19.064;2023-08-06T07:38:42;0.70;;;0.70;;
82005;SDS011;71529;47.484;19.064;2023-08-06T07:41:12;0.60;;;0.60;;
82005;SDS011;71529;47.484;19.064;2023-08-06T07:43:40;1.67;;;0.50;;
82005;SDS011;71529;47.484;19.064;2023-08-06T07:46:09;1.38;;;0.85;;
82005;SDS011;71529;47.484;19.064;2023-08-06T07:48:38;1.30;;;1.20;;
82005;SDS011;71529;47.484;19.064;2023-08-06T07:51:06;1.58;;;1.30;;
82005;SDS011;71529;47.484;19.064;2023-08-06T07:53:34;1.88;;;1.77;;
82005;SDS011;71529;47.484;19.064;2023-08-06T07:56:02;3.60;;;2.95;;
82005;SDS011;71529;47.484;19.064;2023-08-06T07:58:32;2.38;;;1.77;;
82005;SDS011;71529;47.484;19.064;2023-08-06T08:01:00;1.38;;;1.08;;
82005;SDS011;71529;47.484;19.064;2023-08-06T08:03:31;1.67;;;1.15;;
82005;SDS011;71529;47.484;19.064;2023-08-06T08:05:59;1.75;;;1.10;;
82005;SDS011;71529;47.484;19.064;2023-08-06T08:08:27;1.02;;;0.93;;
82005;SDS011;71529;47.484;19.064;2023-08-06T08:10:55;1.38;;;0.70;;
82005;SDS011;71529;47.484;19.064;2023-08-06T08:13:25;1.13;;;0.75;;
82005;SDS011;71529;47.484;19.064;2023-08-06T08:15:57;6.10;;;1.60;;
82005;SDS011;71529;47.484;19.064;2023-08-06T08:18:26;0.70;;;0.63;;
82005;SDS011;71529;47.484;19.064;2023-08-06T08:20:54;2.10;;;0.80;;
82005;SDS011;71529;47.484;19.064;2023-08-06T08:23:22;1.38;;;0.80;;
82005;SDS011;71529;47.484;19.064;2023-08-06T08:25:50;2.28;;;1.55;;
82005;SDS011;71529;47.484;19.064;2023-08-06T08:28:18;1.60;;;1.13;;
82005;SDS011;71529;47.484;19.064;2023-08-06T08:30:47;0.60;;;0.55;;
82005;SDS011;71529;47.484;19.064;2023-08-06T08:33:16;0.68;;;0.68;;
82005;SDS011;71529;47.484;19.064;2023-08-06T08:35:45;1.65;;;1.00;;
82005;SDS011;71529;47.484;19.064;2023-08-06T08:38:13;1.95;;;1.40;;
82005;SDS011;71529;47.484;19.064;2023-08-06T08:40:42;1.00;;;0.90;;
82005;SDS011;71529;47.484;19.064;2023-08-06T08:43:15;4.75;;;1.45;;
82005;SDS011;71529;47.484;19.064;2023-08-06T08:45:43;4.63;;;0.93;;
82005;SDS011;71529;47.484;19.064;2023-08-06T08:48:18;2.38;;;1.05;;
82005;SDS011;71529;47.484;19.064;2023-08-06T08:50:48;1.67;;;1.10;;
82005;SDS011;71529;47.484;19.064;2023-08-06T08:53:17;1.95;;;0.85;;
82005;SDS011;71529;47.484;19.064;2023-08-06T08:55:46;3.97;;;1.00;;
82005;SDS011;71529;47.484;19.064;2023-08-06T08:58:16;1.10;;;0.40;;
82005;SDS011;71529;47.484;19.064;2023-08-06T09:00:45;0.75;;;0.40;;
82005;SDS011;71529;47.484;19.064;2023-08-06T09:03:14;1.75;;;0.60;;
82005;SDS011;71529;47.484;19.064;2023-08-06T09:05:49;2.60;;;2.33;;
82005;SDS011;71529;47.484;19.064;2023-08-06T09:08:24;1.20;;;1.10;;
82005;SDS011;71529;47.484;19.064;2023-08-06T09:10:58;1.67;;;1.20;;
82005;SDS011;71529;47.484;19.064;2023-08-06T09:13:29;2.13;;;1.60;;
82005;SDS011;71529;47.484;19.064;2023-08-06T09:15:57;2.20;;;1.60;;
82005;SDS011;71529;47.484;19.064;2023-08-06T09:18:26;1.02;;;0.93;;
82005;SDS011;71529;47.484;19.064;2023-08-06T09:20:57;1.10;;;1.00;;
82005;SDS011;71529;47.484;19.064;2023-08-06T09:23:28;4.90;;;2.03;;
82005;SDS011;71529;47.484;19.064;2023-08-06T09:25:58;1.73;;;1.33;;
82005;SDS011;71529;47.484;19.064;2023-08-06T09:28:31;2.97;;;1.77;;
82005;SDS011;71529;47.484;19.064;2023-08-06T09:31:04;2.00;;;1.70;;
82005;SDS011;71529;47.484;19.064;2023-08-06T09:33:32;6.35;;;3.92;;
82005;SDS011;71529;47.484;19.064;2023-08-06T09:36:08;3.67;;;3.05;;
82005;SDS011;71529;47.484;19.064;2023-08-06T09:38:37;5.28;;;3.63;;
82005;SDS011;71529;47.484;19.064;2023-08-06T09:41:07;2.97;;;2.58;;
82005;SDS011;71529;47.484;19.064;2023-08-06T09:43:41;3.20;;;2.03;;
82005;SDS011;71529;47.484;19.064;2023-08-06T09:46:10;6.43;;;4.95;;
82005;SDS011;71529;47.484;19.064;2023-08-06T09:48:40;3.53;;;2.50;;
82005;SDS011;71529;47.484;19.064;2023-08-06T09:51:13;4.45;;;2.67;;
82005;SDS011;71529;47.484;19.064;2023-08-06T09:53:41;2.55;;;2.05;;
82005;SDS011;71529;47.484;19.064;2023-08-06T09:56:10;5.25;;;3.53;;
82005;SDS011;71529;47.484;19.064;2023-08-06T09:58:38;3.03;;;2.28;;
82005;SDS011;71529;47.484;19.064;2023-08-06T10:01:07;5.68;;;2.40;;
82005;SDS011;71529;47.484;19.064;2023-08-06T10:03:36;2.75;;;2.03;;
82005;SDS011;71529;47.484;19.064;2023-08-06T10:06:04;4.03;;;2.83;;
82005;SDS011;71529;47.484;19.064;2023-08-06T10:08:36;3.03;;;2.38;;
82005;SDS011;71529;47.484;19.064;2023-08-06T10:11:05;6.15;;;4.03;;
82005;SDS011;71529;47.484;19.064;2023-08-06T10:13:34;5.05;;;3.65;;
82005;SDS011;71529;47.484;19.064;2023-08-06T10:16:03;3.65;;;2.50;;
82005;SDS011;71529;47.484;19.064;2023-08-06T10:18:32;1.60;;;1.50;;
82005;SDS011;71529;47.484;19.064;2023-08-06T10:21:04;1.90;;;1.70;;
82005;SDS011;71529;47.484;19.064;2023-08-06T10:23:39;1.50;;;1.40;;
82005;SDS011;71529;47.484;19.064;2023-08-06T10:26:08;3.93;;;1.57;;
82005;SDS011;71529;47.484;19.064;2023-08-06T10:28:38;3.38;;;2.60;;
82005;SDS011;71529;47.484;19.064;2023-08-06T10:31:06;3.17;;;2.13;;
82005;SDS011;71529;47.484;19.064;2023-08-06T10:33:41;1.50;;;1.40;;
82005;SDS011;71529;47.484;19.064;2023-08-06T10:36:11;0.90;;;0.90;;
82005;SDS011;71529;47.484;19.064;2023-08-06T10:38:48;1.35;;;1.00;;
82005;SDS011;71529;47.484;19.064;2023-08-06T10:41:21;0.52;;;0.52;;
82005;SDS011;71529;47.484;19.064;2023-08-06T10:43:51;0.82;;;0.80;;
82005;SDS011;71529;47.484;19.064;2023-08-06T10:46:23;1.38;;;0.75;;
82005;SDS011;71529;47.484;19.064;2023-08-06T10:48:55;1.48;;;0.80;;
82005;SDS011;71529;47.484;19.064;2023-08-06T10:51:23;6.07;;;3.25;;
82005;SDS011;71529;47.484;19.064;2023-08-06T10:53:52;4.75;;;1.88;;
82005;SDS011;71529;47.484;19.064;2023-08-06T10:56:21;2.25;;;1.70;;
82005;SDS011;71529;47.484;19.064;2023-08-06T10:58:53;2.03;;;1.85;;
82005;SDS011;71529;47.484;19.064;2023-08-06T11:01:22;1.08;;;1.00;;
82005;SDS011;71529;47.484;19.064;2023-08-06T11:03:50;0.90;;;0.85;;
82005;SDS011;71529;47.484;19.064;2023-08-06T11:06:20;1.58;;;1.33;;
82005;SDS011;71529;47.484;19.064;2023-08-06T11:08:50;4.35;;;2.80;;
82005;SDS011;71529;47.484;19.064;2023-08-06T11:11:22;1.80;;;1.70;;
82005;SDS011;71529;47.484;19.064;2023-08-06T11:13:51;1.30;;;1.20;;
82005;SDS011;71529;47.484;19.064;2023-08-06T11:16:20;11.90;;;1.33;;
82005;SDS011;71529;47.484;19.064;2023-08-06T11:18:51;1.90;;;1.42;;
82005;SDS011;71529;47.484;19.064;2023-08-06T11:21:20;3.50;;;1.73;;
82005;SDS011;71529;47.484;19.064;2023-08-06T11:23:51;3.10;;;1.60;;
82005;SDS011;71529;47.484;19.064;2023-08-06T11:26:19;2.90;;;2.38;;
82005;SDS011;71529;47.484;19.064;2023-08-06T11:28:49;4.22;;;2.97;;
82005;SDS011;71529;47.484;19.064;2023-08-06T11:31:20;4.05;;;2.63;;
82005;SDS011;71529;47.484;19.064;2023-08-06T11:33:49;4.18;;;2.03;;
82005;SDS011;71529;47.484;19.064;2023-08-06T11:36:27;2.22;;;1.92;;
82005;SDS011;71529;47.484;19.064;2023-08-06T11:38:56;5.72;;;1.90;;
82005;SDS011;71529;47.484;19.064;2023-08-06T11:41:25;1.98;;;1.85;;
82005;SDS011;71529;47.484;19.064;2023-08-06T11:43:56;2.58;;;1.42;;
82005;SDS011;71529;47.484;19.064;2023-08-06T11:46:24;2.08;;;1.88;;
82005;SDS011;71529;47.484;19.064;2023-08-06T11:48:54;4.18;;;2.90;;
82005;SDS011;71529;47.484;19.064;2023-08-06T11:51:23;8.13;;;3.20;;
82005;SDS011;71529;47.484;19.064;2023-08-06T11:53:54;3.63;;;2.33;;
82005;SDS011;71529;47.484;19.064;2023-08-06T11:56:23;3.85;;;2.05;;
82005;SDS011;71529;47.484;19.064;2023-08-06T11:58:52;2.00;;;1.80;;
82005;SDS011;71529;47.484;19.064;2023-08-06T12:01:21;3.85;;;2.30;;
82005;SDS011;71529;47.484;19.064;2023-08-06T12:03:50;3.17;;;2.10;;
82005;SDS011;71529;47.484;19.064;2023-08-06T12:06:18;2.10;;;1.73;;
82005;SDS011;71529;47.484;19.064;2023-08-06T12:08:46;0.73;;;0.70;;
82005;SDS011;71529;47.484;19.064;2023-08-06T12:11:14;1.50;;;1.00;;
82005;SDS011;71529;47.484;19.064;2023-08-06T12:13:42;0.80;;;0.80;;
82005;SDS011;71529;47.484;19.064;2023-08-06T12:16:11;1.60;;;1.33;;
82005;SDS011;71529;47.484;19.064;2023-08-06T12:18:41;3.03;;;1.13;;
82005;SDS011;71529;47.484;19.064;2023-08-06T12:21:09;1.83;;;1.70;;
82005;SDS011;71529;47.484;19.064;2023-08-06T12:23:37;2.20;;;1.30;;
82005;SDS011;71529;47.484;19.064;2023-08-06T12:26:05;1.42;;;1.33;;
82005;SDS011;71529;47.484;19.064;2023-08-06T12:28:33;2.28;;;1.20;;
82005;SDS011;71529;47.484;19.064;2023-08-06T12:31:01;0.50;;;0.50;;
82005;SDS011;71529;47.484;19.064;2023-08-06T12:33:30;0.73;;;0.73;;
82005;SDS011;71529;47.484;19.064;2023-08-06T12:35:59;2.00;;;0.98;;
82005;SDS011;71529;47.484;19.064;2023-08-06T12:38:27;1.10;;;0.80;;
82005;SDS011;71529;47.484;19.064;2023-08-06T12:40:59;1.50;;;1.00;;
82005;SDS011;71529;47.484;19.064;2023-08-06T12:43:27;0.93;;;0.82;;
82005;SDS011;71529;47.484;19.064;2023-08-06T12:45:55;1.50;;;1.40;;
82005;SDS011;71529;47.484;19.064;2023-08-06T12:48:23;1.02;;;1.02;;
82005;SDS011;71529;47.484;19.064;2023-08-06T12:50:51;1.50;;;1.40;;
82005;SDS011;71529;47.484;19.064;2023-08-06T12:53:21;1.98;;;1.85;;
82005;SDS011;71529;47.484;19.064;2023-08-06T12:55:49;2.45;;;1.92;;
82005;SDS011;71529;47.484;19.064;2023-08-06T12:58:18;3.15;;;1.98;;
82005;SDS011;71529;47.484;19.064;2023-08-06T13:00:46;2.17;;;1.60;;
82005;SDS011;71529;47.484;19.064;2023-08-06T13:03:14;4.43;;;1.40;;
82005;SDS011;71529;47.484;19.064;2023-08-06T13:05:43;2.63;;;1.33;;
82005;SDS011;71529;47.484;19.064;2023-08-06T13:08:13;2.58;;;1.50;;
82005;SDS011;71529;47.484;19.064;2023-08-06T13:10:43;1.33;;;1.23;;
82005;SDS011;71529;47.484;19.064;2023-08-06T13:13:12;3.75;;;2.67;;
82005;SDS011;71529;47.484;19.064;2023-08-06T13:15:42;2.47;;;1.60;;
82005;SDS011;71529;47.484;19.064;2023-08-06T13:18:11;18.17;;;14.95;;
82005;SDS011;71529;47.484;19.064;2023-08-06T13:20:40;3.33;;;2.65;;
82005;SDS011;71529;47.484;19.064;2023-08-06T13:23:09;4.18;;;1.90;;
82005;SDS011;71529;47.484;19.064;2023-08-06T13:25:37;1.13;;;1.10;;
82005;SDS011;71529;47.484;19.064;2023-08-06T13:28:07;1.70;;;1.35;;
82005;SDS011;71529;47.484;19.064;2023-08-06T13:30:36;1.70;;;1.60;;
82005;SDS011;71529;47.484;19.064;2023-08-06T13:33:09;1.17;;;1.07;;
82005;SDS011;71529;47.484;19.064;2023-08-06T13:35:38;1.13;;;1.10;;
82005;SDS011;71529;47.484;19.064;2023-08-06T13:38:07;2.63;;;2.10;;
82005;SDS011;71529;47.484;19.064;2023-08-06T13:40:35;3.60;;;3.03;;
82005;SDS011;71529;47.484;19.064;2023-08-06T13:43:04;4.78;;;4.25;;
82005;SDS011;71529;47.484;19.064;2023-08-06T13:45:34;3.45;;;2.70;;
82005;SDS011;71529;47.484;19.064;2023-08-06T13:48:05;4.75;;;3.03;;
82005;SDS011;71529;47.484;19.064;2023-08-06T13:50:37;2.33;;;1.90;;
82005;SDS011;71529;47.484;19.064;2023-08-06T13:55:49;2.25;;;1.80;;
82005;SDS011;71529;47.484;19.064;2023-08-06T13:58:19;3.42;;;2.13;;
82005;SDS011;71529;47.484;19.064;2023-08-06T14:00:50;2.17;;;1.98;;
82005;SDS011;71529;47.484;19.064;2023-08-06T14:03:20;2.85;;;2.30;;
82005;SDS011;71529;47.484;19.064;2023-08-06T14:05:49;3.65;;;3.30;;
82005;SDS011;71529;47.484;19.064;2023-08-06T14:08:19;9.30;;;8.10;;
82005;SDS011;71529;47.484;19.064;2023-08-06T14:10:48;3.75;;;3.38;;
82005;SDS011;71529;47.484;19.064;2023-08-06T14:13:16;4.05;;;2.83;;
82005;SDS011;71529;47.484;19.064;2023-08-06T14:15:45;1.98;;;1.88;;
82005;SDS011;71529;47.484;19.064;2023-08-06T14:18:16;2.13;;;1.90;;
82005;SDS011;71529;47.484;19.064;2023-08-06T14:20:46;1.92;;;1.80;;
82005;SDS011;71529;47.484;19.064;2023-08-06T14:23:15;2.03;;;1.92;;
82005;SDS011;71529;47.484;19.064;2023-08-06T14:25:43;2.05;;;1.85;;
82005;SDS011;71529;47.484;19.064;2023-08-06T14:28:12;2.72;;;2.42;;
82005;SDS011;71529;47.484;19.064;2023-08-06T14:30:41;6.97;;;5.70;;
82005;SDS011;71529;47.484;19.064;2023-08-06T14:33:11;2.60;;;2.40;;
82005;SDS011;71529;47.484;19.064;2023-08-06T14:35:55;3.33;;;2.70;;
82005;SDS011;71529;47.484;19.064;2023-08-06T14:38:23;3.00;;;2.70;;
82005;SDS011;71529;47.484;19.064;2023-08-06T14:40:51;2.47;;;2.28;;
82005;SDS011;71529;47.484;19.064;2023-08-06T14:43:21;1.80;;;1.70;;
82005;SDS011;71529;47.484;19.064;2023-08-06T14:45:50;3.13;;;2.10;;
82005;SDS011;71529;47.484;19.064;2023-08-06T14:48:20;5.53;;;2.55;;